MSC Gina — 3FLY9 — position and weather

sailwx.info

Track history (hours):
 
Tides and Currents Weather Stations Pressure Air Temp Water Temp Dewpoint Dewpoint Depression Visibility Wind Speed Wind Dir Waves Ship Positions

MSC Gina

Last reported at 2015-Jan-25 03:27 UTC. Time now 2015-Jan-26 02:26 UTC.
Position N 46°30' W 072°14'.

Length 259 m; draft 11.1 m.

Type: Ship (hazmat cat A). MMSI: 357542000.

Date/timePositionNaut miles runAvg speedWind from/ knotsBaromVisibWave heightAir tempDewpointWater temp
2015-Jan-25 03:27N 46°30' W 072°14'9 9.5
2015-Jan-25 02:33N 46°25' W 072°23'8 7.7
2015-Jan-25 01:33N 46°20' W 072°32'7 7.5
2015-Jan-25 00:33N 46°16' W 072°41'10 9.8
2015-Jan-24 23:33N 46°11' W 072°54'  
2015-Jan-20 18:20N 46°03' W 073°08'7 9.2
2015-Jan-20 17:33N 46°06' W 072°59'9 8.5
2015-Jan-20 16:33N 46°12' W 072°50'9 9.0
2015-Jan-20 15:33N 46°16' W 072°38'8 7.6
2015-Jan-20 14:33N 46°21' W 072°30'9 9.2
2015-Jan-20 13:33N 46°26' W 072°19'9 8.8
2015-Jan-20 12:33N 46°32' W 072°10'  
2015-Jan-15 08:33N 38°25' W 030°41'1918.7
2015-Jan-15 07:33N 38°17' W 030°19'1918.8
2015-Jan-15 06:33N 38°09' W 029°57'1918.9
2015-Jan-15 05:33N 38°02' W 029°35'1918.7
2015-Jan-15 04:33N 37°55' W 029°13'1918.6
2015-Jan-15 03:33N 37°47' W 028°52'  
Track history (hours):
 
Tides and Currents Weather Stations Pressure Air Temp Water Temp Dewpoint Dewpoint Depression Visibility Wind Speed Wind Dir Waves Ship Positions

MSC Gina

Last reported at 2015-Jan-25 03:27 UTC. Time now 2015-Jan-26 02:26 UTC.
Position N 46°30' W 072°14'.

Length 259 m; draft 11.1 m.

Type: Ship (hazmat cat A). MMSI: 357542000.

Date/timePositionNaut miles runAvg speedWind from/ knotsBaromVisibWave heightAir tempDewpointWater temp
2015-Jan-25 03:27N 46°30' W 072°14'9 9.5
2015-Jan-25 02:33N 46°25' W 072°23'8 7.7
2015-Jan-25 01:33N 46°20' W 072°32'7 7.5
2015-Jan-25 00:33N 46°16' W 072°41'10 9.8
2015-Jan-24 23:33N 46°11' W 072°54'  
2015-Jan-20 18:20N 46°03' W 073°08'7 9.2
2015-Jan-20 17:33N 46°06' W 072°59'9 8.5
2015-Jan-20 16:33N 46°12' W 072°50'9 9.0
2015-Jan-20 15:33N 46°16' W 072°38'8 7.6
2015-Jan-20 14:33N 46°21' W 072°30'9 9.2
2015-Jan-20 13:33N 46°26' W 072°19'9 8.8
2015-Jan-20 12:33N 46°32' W 072°10'  
2015-Jan-15 08:33N 38°25' W 030°41'1918.7
2015-Jan-15 07:33N 38°17' W 030°19'1918.8
2015-Jan-15 06:33N 38°09' W 029°57'1918.9
2015-Jan-15 05:33N 38°02' W 029°35'1918.7
2015-Jan-15 04:33N 37°55' W 029°13'1918.6
2015-Jan-15 03:33N 37°47' W 028°52'  

Dump ship's entire track history